Time;durP1;ratioP1;P1;durP2;ratioP2;P2;SDS_P1;SDS_P2;PMS_P1;PMS_P2;Temp;Humidity;BMP_temperature;BMP_pressure;BME280_temperature;BME280_humidity;BME280_pressure;Samples;Min_cycle;Max_cycle;Signal;HPM_P1;HPM_P2
2022/12/22 03:28:05;;;;;;;38.40;17.20;;;;;;;-128.00;-1.00;-1.00;96032;1370;1004949;-34
2022/12/22 03:30:31;;;;;;;27.20;14.00;;;;;;;-128.00;-1.00;-1.00;95994;1370;1005026;-34
2022/12/22 03:32:57;;;;;;;19.90;9.10;;;;;;;-128.00;-1.00;-1.00;95984;1370;1003613;-34
2022/12/22 03:35:23;;;;;;;22.80;10.90;;;;;;;-128.00;-1.00;-1.00;96004;1370;1004753;-30
2022/12/22 03:37:49;;;;;;;23.90;10.60;;;;;;;-128.00;-1.00;-1.00;96091;1370;1005092;-34
2022/12/22 03:40:15;;;;;;;25.10;13.90;;;;;;;-128.00;-1.00;-1.00;95989;1370;1004742;-34
2022/12/22 03:47:39;;;;;;;24.50;11.40;;;;;;;-128.00;-1.00;-1.00;95901;1371;1004679;-30
2022/12/22 03:50:05;;;;;;;33.60;12.60;;;;;;;-128.00;-1.00;-1.00;95997;1371;1005553;-34
2022/12/22 03:52:31;;;;;;;28.90;13.10;;;;;;;-128.00;-1.00;-1.00;95946;1369;1004657;-29
2022/12/22 03:54:56;;;;;;;23.30;10.30;;;;;;;-128.00;-1.00;-1.00;95949;1370;1004825;-34
2022/12/22 03:57:22;;;;;;;28.30;11.30;;;;;;;-128.00;-1.00;-1.00;95979;1371;1004600;-34
2022/12/22 03:59:48;;;;;;;28.50;13.10;;;;;;;-128.00;-1.00;-1.00;96051;1370;1003544;-32
2022/12/22 04:02:14;;;;;;;19.70;10.70;;;;;;;-128.00;-1.00;-1.00;96067;1369;1003962;-33
2022/12/22 04:04:39;;;;;;;26.70;12.80;;;;;;;-128.00;-1.00;-1.00;95996;1371;1005349;-30
2022/12/22 04:07:05;;;;;;;21.70;11.40;;;;;;;-128.00;-1.00;-1.00;95995;1370;1003980;-30
2022/12/22 04:09:31;;;;;;;40.40;14.00;;;;;;;-128.00;-1.00;-1.00;95976;1370;1004860;-29
2022/12/22 04:14:26;;;;;;;13.10;5.20;;;;;;;-128.00;-1.00;-1.00;95993;1370;1004892;-29
2022/12/22 04:16:52;;;;;;;24.00;10.90;;;;;;;-128.00;-1.00;-1.00;96010;1371;1004318;-32
2022/12/22 04:19:17;;;;;;;30.20;14.00;;;;;;;-128.00;-1.00;-1.00;96010;1370;1004304;-30
2022/12/22 04:21:43;;;;;;;30.20;14.70;;;;;;;-128.00;-1.00;-1.00;96047;1370;1004566;-31
2022/12/22 04:24:12;;;;;;;42.20;12.00;;;;;;;-128.00;-1.00;-1.00;95994;1370;1004498;-33
2022/12/22 04:26:38;;;;;;;30.50;14.90;;;;;;;-128.00;-1.00;-1.00;96097;1370;1005108;-35
2022/12/22 04:29:04;;;;;;;32.50;14.20;;;;;;;-128.00;-1.00;-1.00;96018;1370;1004335;-30
2022/12/22 04:31:30;;;;;;;30.10;11.40;;;;;;;-128.00;-1.00;-1.00;95998;1370;1004874;-31
2022/12/22 04:33:56;;;;;;;26.80;11.40;;;;;;;-128.00;-1.00;-1.00;95993;1370;1003483;-30
2022/12/22 04:36:21;;;;;;;18.70;9.90;;;;;;;-128.00;-1.00;-1.00;96013;1370;1004480;-31
2022/12/22 05:16:22;;;;;;;28.10;13.80;;;;;;;0.89;100.00;98925.95;99338;1368;558187;-35
2022/12/22 05:18:48;;;;;;;38.30;15.40;;;;;;;0.89;100.00;98923.98;99117;1354;370426;-34
2022/12/22 05:21:19;;;;;;;22.50;11.70;;;;;;;0.80;100.00;98928.20;99521;1350;24368;-34
2022/12/22 05:23:45;;;;;;;27.70;14.40;;;;;;;0.76;100.00;98925.39;99638;1351;22722;-34
2022/12/22 05:26:13;;;;;;;29.30;10.90;;;;;;;0.71;100.00;98925.69;99442;1350;22657;-35
2022/12/22 05:28:40;;;;;;;31.30;15.50;;;;;;;0.70;100.00;98926.66;99523;1350;24460;-30
2022/12/22 05:31:07;;;;;;;33.70;17.20;;;;;;;0.66;100.00;98923.35;99486;1351;24308;-35
2022/12/22 05:33:33;;;;;;;29.90;10.70;;;;;;;0.67;100.00;98921.48;99478;1353;23029;-34
2022/12/22 05:35:59;;;;;;;20.40;10.60;;;;;;;0.61;100.00;98922.26;99493;1370;24632;-30
2022/12/22 05:38:24;;;;;;;36.00;17.20;;;;;;;0.57;100.00;98920.46;99489;1350;23083;-31
2022/12/22 05:40:50;;;;;;;34.10;16.80;;;;;;;0.55;100.00;98916.92;99484;1352;23204;-31
2022/12/22 05:43:16;;;;;;;27.20;14.10;;;;;;;0.54;100.00;98912.69;99603;1350;22714;-35
2022/12/22 05:45:44;;;;;;;26.40;12.10;;;;;;;0.52;100.00;98917.77;99483;1351;23083;-35
2022/12/22 05:48:10;;;;;;;26.90;13.30;;;;;;;0.50;100.00;98910.73;99061;1370;23028;-35
2022/12/22 05:50:36;;;;;;;26.90;13.70;;;;;;;0.47;100.00;98905.57;99490;1370;22835;-31
2022/12/22 05:53:01;;;;;;;33.70;13.50;;;;;;;0.45;100.00;98909.08;99525;1366;24468;-35
2022/12/22 05:55:27;;;;;;;;;;;;;;;0.42;100.00;98913.05;99472;1350;24461;-35
2022/12/22 05:57:53;;;;;;;26.40;13.20;;;;;;;0.40;100.00;98909.73;99494;1351;23468;-31
2022/12/22 06:00:19;;;;;;;29.00;14.20;;;;;;;0.42;100.00;98911.87;99507;1349;24345;-30
2022/12/22 06:02:44;;;;;;;23.50;11.90;;;;;;;0.44;100.00;98911.63;99580;1353;23191;-35
2022/12/22 06:05:11;;;;;;;23.00;10.40;;;;;;;0.42;100.00;98913.45;99582;1350;24334;-31
2022/12/22 06:07:37;;;;;;;23.70;12.80;;;;;;;0.43;100.00;98913.89;99473;1350;22678;-35
2022/12/22 06:10:07;;;;;;;22.40;11.10;;;;;;;0.42;100.00;98915.20;99610;1351;23093;-31
2022/12/22 06:12:33;;;;;;;30.00;13.90;;;;;;;0.39;100.00;98919.02;99466;1349;24345;-31
2022/12/22 06:14:59;;;;;;;42.50;16.70;;;;;;;0.37;100.00;98912.65;99445;1350;24634;-31
2022/12/22 06:17:25;;;;;;;21.60;11.50;;;;;;;0.38;100.00;98912.55;99500;1350;24359;-35
2022/12/22 06:19:51;;;;;;;31.40;15.90;;;;;;;0.39;100.00;98910.02;99473;1350;23030;-31
2022/12/22 06:22:16;;;;;;;25.10;12.80;;;;;;;0.44;100.00;98905.86;99427;1355;22610;-37
2022/12/22 06:24:42;;;;;;;22.10;12.40;;;;;;;0.46;100.00;98911.60;99617;1359;24081;-35
2022/12/22 06:27:09;;;;;;;33.90;13.90;;;;;;;0.51;100.00;98914.05;99491;1350;22731;-35
2022/12/22 06:29:36;;;;;;;40.50;22.00;;;;;;;0.55;100.00;98911.53;99523;1350;22816;-31
2022/12/22 06:32:01;;;;;;;37.50;16.60;;;;;;;0.57;100.00;98915.89;99604;1366;22996;-30
2022/12/22 06:34:27;;;;;;;31.90;15.00;;;;;;;0.59;100.00;98908.46;99554;1365;23205;-33
2022/12/22 06:36:53;;;;;;;33.20;16.50;;;;;;;0.65;100.00;98910.33;99601;1369;24496;-33
2022/12/22 06:39:19;;;;;;;36.00;16.60;;;;;;;0.69;100.00;98909.98;99431;1350;23196;-29
2022/12/22 06:44:14;;;;;;;21.80;12.70;;;;;;;0.76;100.00;98900.52;99513;1350;24423;-33
2022/12/22 06:46:40;;;;;;;23.30;11.30;;;;;;;0.83;100.00;98898.84;99579;1349;24393;-38
2022/12/22 06:49:05;;;;;;;37.30;18.40;;;;;;;0.89;100.00;98894.88;99611;1361;22844;-30
2022/12/22 06:51:31;;;;;;;37.70;17.30;;;;;;;0.92;100.00;98892.12;99492;1359;23083;-34
2022/12/22 06:53:57;;;;;;;24.00;13.80;;;;;;;0.96;100.00;98895.11;99521;1367;23067;-30
2022/12/22 06:56:22;;;;;;;28.10;14.10;;;;;;;0.99;100.00;98892.50;99447;1357;24469;-34
2022/12/22 06:58:48;;;;;;;34.20;16.80;;;;;;;1.00;100.00;98890.36;99332;1357;22602;-30
2022/12/22 07:01:14;;;;;;;30.20;15.20;;;;;;;0.97;100.00;98885.70;99528;1367;23039;-28
2022/12/22 07:03:40;;;;;;;23.60;13.10;;;;;;;0.97;100.00;98884.84;99505;1350;23177;-30
2022/12/22 07:06:06;;;;;;;21.40;11.20;;;;;;;0.97;100.00;98883.51;99523;1350;22850;-31
2022/12/22 07:08:32;;;;;;;22.30;11.20;;;;;;;0.97;100.00;98882.63;99502;1350;24347;-30
2022/12/22 07:10:58;;;;;;;29.60;15.30;;;;;;;0.97;100.00;98886.17;99532;1359;24271;-31
2022/12/22 07:13:32;;;;;;;35.20;16.50;;;;;;;1.02;100.00;98876.20;99574;1366;24420;-31
2022/12/22 07:15:59;;;;;;;29.60;14.30;;;;;;;1.00;100.00;98871.62;99553;1351;22842;-33
2022/12/22 07:18:26;;;;;;;19.60;11.00;;;;;;;1.05;100.00;98874.48;99589;1350;24459;-30
2022/12/22 07:20:51;;;;;;;27.00;13.20;;;;;;;1.08;100.00;98873.85;99488;1367;24357;-29
2022/12/22 07:23:17;;;;;;;17.60;10.00;;;;;;;1.09;100.00;98884.52;99456;1360;23036;-29
2022/12/22 07:25:43;;;;;;;26.20;11.50;;;;;;;1.07;100.00;98877.45;99474;1350;22830;-33
2022/12/22 07:28:09;;;;;;;22.30;10.80;;;;;;;1.07;100.00;98865.31;99287;1369;23171;-29
2022/12/22 07:30:35;;;;;;;27.70;14.10;;;;;;;1.04;100.00;98856.92;99329;1354;24346;-33
2022/12/22 07:33:02;;;;;;;25.30;13.00;;;;;;;1.07;100.00;98851.73;99318;1370;24481;-33
2022/12/22 07:35:28;;;;;;;25.10;13.90;;;;;;;1.08;100.00;98853.00;99515;1351;22598;-35
2022/12/22 07:37:54;;;;;;;52.40;22.10;;;;;;;1.12;100.00;98845.03;99487;1350;22932;-31
2022/12/22 07:40:20;;;;;;;81.80;37.60;;;;;;;-128.00;-1.00;-1.00;96141;1370;1004114;-31
2022/12/22 07:42:45;;;;;;;114.50;55.20;;;;;;;-128.00;-1.00;-1.00;96121;1370;1004730;-31
2022/12/22 07:45:16;;;;;;;75.60;35.60;;;;;;;-128.00;-1.00;-1.00;96143;1370;1005367;-31
2022/12/22 07:47:42;;;;;;;53.40;30.60;;;;;;;-128.00;-1.00;-1.00;96122;1370;1004566;-28
2022/12/22 07:52:40;;;;;;;25.30;13.70;;;;;;;-128.00;-1.00;-1.00;96112;1369;1003397;-29
2022/12/22 07:55:06;;;;;;;24.60;13.90;;;;;;;-128.00;-1.00;-1.00;96089;1370;1004812;-33
2022/12/22 07:57:34;;;;;;;28.80;16.40;;;;;;;-128.00;-1.00;-1.00;96120;1370;1005080;-28
2022/12/22 08:00:01;;;;;;;39.00;17.80;;;;;;;-128.00;-1.00;-1.00;96177;1369;1005225;-33
2022/12/22 08:02:26;;;;;;;24.50;14.20;;;;;;;-128.00;-1.00;-1.00;96053;1370;1005144;-28
2022/12/22 08:04:52;;;;;;;36.90;17.90;;;;;;;-128.00;-1.00;-1.00;96152;1370;1004634;-34
2022/12/22 08:07:18;;;;;;;30.20;13.00;;;;;;;-128.00;-1.00;-1.00;96166;1370;1004749;-33
2022/12/22 08:09:44;;;;;;;32.80;13.30;;;;;;;-128.00;-1.00;-1.00;96095;1369;1004804;-29
2022/12/22 08:12:10;;;;;;;30.80;15.20;;;;;;;-128.00;-1.00;-1.00;96062;1370;1004699;-34
2022/12/22 08:14:36;;;;;;;23.40;12.70;;;;;;;-128.00;-1.00;-1.00;96135;1370;1004326;-34
2022/12/22 08:17:02;;;;;;;22.60;11.50;;;;;;;-128.00;-1.00;-1.00;96114;1369;1004682;-29
2022/12/22 08:19:28;;;;;;;32.70;16.50;;;;;;;-128.00;-1.00;-1.00;96067;1370;1005193;-29
2022/12/22 08:21:54;;;;;;;39.50;16.90;;;;;;;-128.00;-1.00;-1.00;96134;1370;1004316;-29
2022/12/22 08:24:20;;;;;;;26.20;12.80;;;;;;;-128.00;-1.00;-1.00;96149;1369;1004387;-30
2022/12/22 08:26:46;;;;;;;16.50;10.60;;;;;;;-128.00;-1.00;-1.00;96156;1370;1004393;-33
2022/12/22 08:29:15;;;;;;;19.30;11.30;;;;;;;-128.00;-1.00;-1.00;96213;1369;1004739;-34
2022/12/22 08:31:40;;;;;;;30.10;15.70;;;;;;;-128.00;-1.00;-1.00;96123;1369;1003542;-33
2022/12/22 08:34:07;;;;;;;26.40;14.30;;;;;;;-128.00;-1.00;-1.00;96209;1370;1004794;-35
2022/12/22 08:36:34;;;;;;;24.80;13.80;;;;;;;-128.00;-1.00;-1.00;96090;1370;1004686;-33
2022/12/22 08:39:00;;;;;;;25.90;12.40;;;;;;;-128.00;-1.00;-1.00;96082;1370;1004832;-29
2022/12/22 08:43:55;;;;;;;22.30;11.30;;;;;;;-128.00;-1.00;-1.00;96078;1370;1004077;-34
2022/12/22 08:46:21;;;;;;;36.50;15.40;;;;;;;-128.00;-1.00;-1.00;96171;1370;1004674;-34
2022/12/22 08:48:46;;;;;;;22.80;10.90;;;;;;;-128.00;-1.00;-1.00;96097;1369;1004704;-34
2022/12/22 08:51:12;;;;;;;18.30;8.40;;;;;;;-128.00;-1.00;-1.00;96062;1370;1004491;-34
2022/12/22 08:53:38;;;;;;;20.90;11.10;;;;;;;-128.00;-1.00;-1.00;96121;1369;1004675;-33
2022/12/22 08:56:04;;;;;;;16.80;10.30;;;;;;;-128.00;-1.00;-1.00;95938;1370;1004867;-31
2022/12/22 08:58:30;;;;;;;26.40;13.70;;;;;;;-128.00;-1.00;-1.00;96118;1370;1003870;-31
2022/12/22 09:00:56;;;;;;;19.90;10.40;;;;;;;-128.00;-1.00;-1.00;96146;1369;1004625;-30
2022/12/22 09:03:22;;;;;;;15.70;9.00;;;;;;;-128.00;-1.00;-1.00;95979;1370;1004916;-31
2022/12/22 09:05:48;;;;;;;13.00;7.80;;;;;;;-128.00;-1.00;-1.00;95906;1370;1004352;-31
2022/12/22 09:08:14;;;;;;;23.50;12.40;;;;;;;-128.00;-1.00;-1.00;96084;1370;1003997;-34
2022/12/22 09:10:42;;;;;;;17.10;10.50;;;;;;;-128.00;-1.00;-1.00;95941;1370;1004071;-35
2022/12/22 09:13:07;;;;;;;11.00;6.10;;;;;;;-128.00;-1.00;-1.00;96083;1369;1004474;-35
2022/12/22 09:15:33;;;;;;;19.50;12.30;;;;;;;-128.00;-1.00;-1.00;96044;1369;1004631;-35
2022/12/22 09:17:59;;;;;;;17.90;8.90;;;;;;;-128.00;-1.00;-1.00;96090;1369;1004859;-35
2022/12/22 09:20:25;;;;;;;20.00;10.20;;;;;;;-128.00;-1.00;-1.00;96121;1369;1004061;-34
2022/12/22 09:22:51;;;;;;;14.20;10.10;;;;;;;-128.00;-1.00;-1.00;96130;1370;1004841;-34
2022/12/22 09:25:17;;;;;;;27.50;9.90;;;;;;;-128.00;-1.00;-1.00;96091;1370;1004741;-30
2022/12/22 09:27:42;;;;;;;21.20;11.00;;;;;;;-128.00;-1.00;-1.00;95930;1370;1004797;-30
2022/12/22 09:30:09;;;;;;;22.00;10.60;;;;;;;-128.00;-1.00;-1.00;96102;1370;1004881;-34
2022/12/22 09:32:35;;;;;;;18.80;11.00;;;;;;;-128.00;-1.00;-1.00;96130;1370;1004608;-30
2022/12/22 09:35:00;;;;;;;21.80;10.50;;;;;;;-128.00;-1.00;-1.00;96080;1370;1005150;-30
2022/12/22 09:37:26;;;;;;;17.60;10.60;;;;;;;-128.00;-1.00;-1.00;96098;1370;1004327;-34
2022/12/22 09:39:52;;;;;;;21.80;10.80;;;;;;;-128.00;-1.00;-1.00;96057;1370;1004942;-34
2022/12/22 09:42:18;;;;;;;17.60;10.00;;;;;;;-128.00;-1.00;-1.00;96145;1370;1005073;-30
2022/12/22 09:44:46;;;;;;;14.80;8.50;;;;;;;-128.00;-1.00;-1.00;96044;1370;1004449;-30
2022/12/22 09:47:17;;;;;;;16.90;8.80;;;;;;;-128.00;-1.00;-1.00;96190;1369;1003903;-30
2022/12/22 09:49:43;;;;;;;19.80;9.90;;;;;;;-128.00;-1.00;-1.00;96108;1369;1003666;-31
2022/12/22 09:52:21;;;;;;;17.80;8.60;;;;;;;-128.00;-1.00;-1.00;95771;1370;1004622;-31
2022/12/22 09:54:46;;;;;;;24.50;10.70;;;;;;;-128.00;-1.00;-1.00;96056;1370;1004895;-34
2022/12/22 09:57:12;;;;;;;22.60;11.80;;;;;;;-128.00;-1.00;-1.00;96053;1370;1003608;-34
2022/12/22 09:59:38;;;;;;;19.80;9.30;;;;;;;-128.00;-1.00;-1.00;96159;1370;1005085;-34
2022/12/22 10:02:23;;;;;;;23.90;10.30;;;;;;;-128.00;-1.00;-1.00;96072;1370;1003636;-30
2022/12/22 10:05:13;;;;;;;33.80;13.30;;;;;;;-128.00;-1.00;-1.00;95962;1371;1005372;-31
2022/12/22 10:07:41;;;;;;;23.50;11.60;;;;;;;-128.00;-1.00;-1.00;96146;1369;1004232;-34
2022/12/22 10:10:24;;;;;;;29.00;13.70;;;;;;;-128.00;-1.00;-1.00;96138;1369;1004965;-33
2022/12/22 10:12:59;;;;;;;17.20;12.00;;;;;;;-128.00;-1.00;-1.00;96196;1369;1004587;-33
2022/12/22 10:15:25;;;;;;;16.40;10.30;;;;;;;-128.00;-1.00;-1.00;95817;1370;1005253;-32
2022/12/22 10:17:53;;;;;;;20.80;10.90;;;;;;;-128.00;-1.00;-1.00;96136;1369;1004524;-30
2022/12/22 10:20:24;;;;;;;17.70;9.70;;;;;;;-128.00;-1.00;-1.00;95943;1370;1004668;-30
2022/12/22 10:22:52;;;;;;;18.80;11.60;;;;;;;-128.00;-1.00;-1.00;95864;1370;1004046;-31
2022/12/22 10:25:31;;;;;;;21.80;7.70;;;;;;;-128.00;-1.00;-1.00;96119;1370;1003536;-31
2022/12/22 10:27:58;;;;;;;16.60;9.30;;;;;;;-128.00;-1.00;-1.00;96079;1370;1003720;-30
2022/12/22 10:30:26;;;;;;;13.90;7.70;;;;;;;-128.00;-1.00;-1.00;96113;1370;1004126;-35
2022/12/22 10:33:12;;;;;;;18.00;9.10;;;;;;;-128.00;-1.00;-1.00;96113;1370;1004213;-34
2022/12/22 10:35:44;;;;;;;12.50;6.00;;;;;;;-128.00;-1.00;-1.00;95954;1370;1004399;-35
2022/12/22 10:38:20;;;;;;;15.90;9.50;;;;;;;-128.00;-1.00;-1.00;96125;1369;1003675;-37
2022/12/22 10:40:47;;;;;;;22.40;8.90;;;;;;;-128.00;-1.00;-1.00;96134;1368;1004444;-33
2022/12/22 10:43:18;;;;;;;19.30;9.90;;;;;;;-128.00;-1.00;-1.00;95935;1370;1005227;-29
2022/12/22 10:45:47;;;;;;;12.60;7.30;;;;;;;-128.00;-1.00;-1.00;96100;1369;1004683;-30
2022/12/22 10:48:13;;;;;;;14.90;7.90;;;;;;;-128.00;-1.00;-1.00;96161;1370;1004569;-29
2022/12/22 10:50:45;;;;;;;14.80;8.50;;;;;;;-128.00;-1.00;-1.00;96081;1370;1004579;-29
2022/12/22 10:53:11;;;;;;;15.80;8.10;;;;;;;-128.00;-1.00;-1.00;96152;1370;1005392;-34
2022/12/22 10:55:38;;;;;;;8.70;5.70;;;;;;;-128.00;-1.00;-1.00;96082;1369;1004488;-34
2022/12/22 10:58:16;;;;;;;8.80;6.10;;;;;;;-128.00;-1.00;-1.00;96111;1370;1004597;-33
2022/12/22 11:00:43;;;;;;;11.90;7.80;;;;;;;-128.00;-1.00;-1.00;96102;1370;1004593;-40
2022/12/22 11:03:13;;;;;;;16.90;7.60;;;;;;;-128.00;-1.00;-1.00;96125;1370;1004837;-30
2022/12/22 11:05:40;;;;;;;9.00;5.70;;;;;;;-128.00;-1.00;-1.00;96101;1370;1004667;-30
2022/12/22 11:45:51;;;;;;;9.60;5.00;;;;;;;6.00;94.99;98526.09;99113;1369;557416;-33
2022/12/22 11:48:50;;;;;;;15.60;7.20;;;;;;;5.62;95.38;98528.92;98927;1370;342767;-29
2022/12/22 11:51:48;;;;;;;12.30;7.80;;;;;;;5.32;97.05;98532.02;99389;1352;22608;-28
2022/12/22 11:54:34;;;;;;;11.80;7.10;;;;;;;5.12;99.16;98530.64;99300;1353;23212;-32
2022/12/22 11:57:32;;;;;;;16.20;7.20;;;;;;;4.81;100.00;98518.71;99395;1368;22738;-34
2022/12/22 12:00:09;;;;;;;13.60;7.70;;;;;;;4.64;100.00;98506.41;99362;1370;22972;-32
2022/12/22 12:03:07;;;;;;;12.30;7.20;;;;;;;4.51;100.00;98504.38;99415;1366;24279;-33
2022/12/22 12:05:42;;;;;;;16.80;7.70;;;;;;;4.53;100.00;98498.59;99349;1350;23042;-33
2022/12/22 12:08:23;;;;;;;18.50;11.30;;;;;;;4.42;100.00;98499.23;99400;1370;22714;-34
2022/12/22 12:11:16;;;;;;;14.70;7.40;;;;;;;4.35;100.00;98493.46;99376;1367;22731;-30
2022/12/22 12:13:58;;;;;;;32.40;13.90;;;;;;;4.27;100.00;98493.23;99334;1365;23012;-29
2022/12/22 12:16:33;;;;;;;37.50;16.70;;;;;;;4.14;100.00;98487.23;99260;1357;22846;-29
2022/12/22 12:19:20;;;;;;;107.70;41.00;;;;;;;3.93;100.00;98483.63;99390;1370;22855;-33
2022/12/22 12:21:49;;;;;;;115.10;36.50;;;;;;;3.82;100.00;98476.46;99398;1370;22729;-29
2022/12/22 12:24:25;;;;;;;62.20;25.20;;;;;;;3.71;100.00;98482.77;99430;1344;22836;-29
2022/12/22 12:27:07;;;;;;;41.00;19.20;;;;;;;3.75;100.00;98488.89;99285;1350;22671;-29
2022/12/22 12:29:55;;;;;;;56.00;23.20;;;;;;;3.69;100.00;98490.61;99353;1350;24693;-34
2022/12/22 12:32:31;;;;;;;24.80;13.50;;;;;;;3.62;100.00;98491.83;99301;1369;23642;-32
2022/12/22 12:35:02;;;;;;;39.80;17.00;;;;;;;3.57;100.00;98489.48;99389;1368;22811;-31
2022/12/22 12:37:28;;;;;;;25.50;11.50;;;;;;;3.54;100.00;98488.81;99356;1344;22879;-31
2022/12/22 12:40:25;;;;;;;32.20;16.30;;;;;;;3.45;100.00;98487.19;99342;1366;23087;-30
2022/12/22 12:42:51;;;;;;;20.40;11.90;;;;;;;3.32;100.00;98483.50;99404;1370;22619;-35
2022/12/22 12:45:33;;;;;;;23.30;13.20;;;;;;;3.24;100.00;98478.77;99335;1354;23636;-34
2022/12/22 12:48:23;;;;;;;20.00;9.20;;;;;;;3.22;100.00;98463.77;99360;1366;23208;-35
2022/12/22 12:50:53;;;;;;;18.20;8.60;;;;;;;3.25;100.00;98468.41;99377;1370;22611;-35
2022/12/22 12:53:20;;;;;;;20.60;12.70;;;;;;;3.21;100.00;98468.42;99384;1353;23099;-32
2022/12/22 12:55:55;;;;;;;21.70;12.80;;;;;;;3.15;100.00;98471.92;99313;1369;23327;-31
2022/12/22 12:58:52;;;;;;;21.60;11.70;;;;;;;3.12;100.00;98476.15;99043;1353;22855;-32
2022/12/22 13:01:56;;;;;;;15.80;8.70;;;;;;;3.10;100.00;98476.13;99340;1354;22729;-37
2022/12/22 13:04:54;;;;;;;25.10;10.30;;;;;;;3.16;100.00;98477.58;99459;1353;22847;-33
2022/12/22 13:07:51;;;;;;;17.80;9.80;;;;;;;3.12;100.00;98474.77;99346;1350;24432;-30
2022/12/22 13:10:23;;;;;;;12.50;8.20;;;;;;;3.14;100.00;98483.44;99358;1353;22718;-36
2022/12/22 13:12:50;;;;;;;20.20;10.10;;;;;;;3.22;100.00;98479.14;99393;1353;22731;-30
2022/12/22 13:15:29;;;;;;;14.70;7.10;;;;;;;3.18;100.00;98478.55;99392;1354;23174;-34
2022/12/22 13:17:55;;;;;;;16.00;8.70;;;;;;;3.09;100.00;98475.30;99356;1354;24379;-31
2022/12/22 13:20:25;;;;;;;14.40;7.50;;;;;;;3.08;100.00;98473.45;99375;1364;22737;-34
2022/12/22 13:22:52;;;;;;;21.80;11.50;;;;;;;3.05;100.00;98475.75;99397;1370;22721;-35
2022/12/22 13:25:18;;;;;;;25.80;12.10;;;;;;;2.98;100.00;98474.77;99363;1365;26645;-31
2022/12/22 13:27:44;;;;;;;18.60;9.60;;;;;;;2.89;100.00;98477.52;99346;1367;23073;-31
2022/12/22 13:30:13;;;;;;;16.70;10.00;;;;;;;2.94;100.00;98484.70;99169;1356;24900;-35
2022/12/22 13:32:39;;;;;;;13.30;8.40;;;;;;;2.85;100.00;98481.48;99077;1363;24399;-35
2022/12/22 13:35:13;;;;;;;20.30;10.10;;;;;;;2.82;100.00;98484.84;99368;1357;22729;-36
2022/12/22 13:37:40;;;;;;;;;;;;;;;2.81;100.00;98480.36;99430;1360;24330;-30
2022/12/22 13:40:10;;;;;;;;;;;;;;;2.78;100.00;98483.15;99372;1367;22895;-31
2022/12/22 13:42:38;;;;;;;27.00;10.60;;;;;;;2.76;100.00;98479.14;99338;1369;22822;-31
2022/12/22 13:45:06;;;;;;;18.60;9.30;;;;;;;2.72;100.00;98481.18;99063;1362;22859;-35
2022/12/22 13:47:31;;;;;;;28.20;11.80;;;;;;;2.75;100.00;98490.42;99338;1357;22725;-34
2022/12/22 13:49:57;;;;;;;21.00;9.10;;;;;;;2.68;100.00;98497.20;99404;1370;22634;-30
2022/12/22 13:52:23;;;;;;;11.80;5.10;;;;;;;2.61;100.00;98496.15;99405;1366;22843;-30
2022/12/22 13:54:49;;;;;;;23.30;9.60;;;;;;;2.56;100.00;98494.23;99402;1353;22733;-30
2022/12/22 13:57:17;;;;;;;32.70;12.40;;;;;;;2.56;100.00;98505.00;99382;1353;22722;-35
2022/12/22 13:59:43;;;;;;;22.10;9.20;;;;;;;2.46;100.00;98507.20;99427;1370;24741;-31
2022/12/22 14:02:15;;;;;;;25.20;12.50;;;;;;;2.42;100.00;98508.16;99383;1370;22852;-34
2022/12/22 14:04:43;;;;;;;23.20;10.70;;;;;;;2.40;100.00;98501.49;99385;1351;22733;-35
2022/12/22 14:07:13;;;;;;;26.90;11.50;;;;;;;2.37;100.00;98491.36;99309;1344;24343;-35
2022/12/22 14:09:45;;;;;;;26.60;12.00;;;;;;;2.29;100.00;98492.59;99166;1365;23071;-35
2022/12/22 14:12:17;;;;;;;24.20;10.90;;;;;;;2.26;100.00;98494.51;99415;1353;23158;-30
2022/12/22 14:14:44;;;;;;;12.40;6.20;;;;;;;2.18;100.00;98491.86;99368;1351;23191;-31
2022/12/22 14:17:24;;;;;;;20.10;9.20;;;;;;;2.17;100.00;98500.53;99340;1353;22732;-31
2022/12/22 14:19:52;;;;;;;15.90;10.10;;;;;;;2.19;100.00;98494.34;99398;1353;22607;-30
2022/12/22 14:22:21;;;;;;;19.30;11.30;;;;;;;2.24;100.00;98492.05;99321;1370;23192;-31
2022/12/22 14:24:53;;;;;;;17.40;8.30;;;;;;;2.27;100.00;98493.85;99378;1366;22844;-36
2022/12/22 14:27:43;;;;;;;22.70;8.50;;;;;;;2.30;100.00;98494.58;99102;1357;22691;-31
2022/12/22 14:30:16;;;;;;;29.20;10.10;;;;;;;2.27;100.00;98497.95;99316;1354;23195;-30
2022/12/22 14:32:44;;;;;;;17.10;9.80;;;;;;;2.29;100.00;98489.38;99348;1370;22638;-34
2022/12/22 14:35:20;;;;;;;20.20;10.90;;;;;;;2.32;100.00;98486.91;99396;1353;22730;-30
2022/12/22 14:37:51;;;;;;;20.80;11.00;;;;;;;2.29;100.00;98484.48;99323;1353;22699;-30
2022/12/22 14:40:30;;;;;;;21.10;10.10;;;;;;;2.28;100.00;98472.92;99410;1350;24281;-35
2022/12/22 14:42:56;;;;;;;24.50;12.40;;;;;;;2.31;100.00;98470.48;99360;1351;22728;-31
2022/12/22 14:45:22;;;;;;;20.00;11.30;;;;;;;2.30;100.00;98470.73;99360;1351;22721;-31
2022/12/22 14:47:49;;;;;;;30.10;11.20;;;;;;;2.26;100.00;98469.73;99059;1359;24354;-35
2022/12/22 14:50:19;;;;;;;21.80;11.30;;;;;;;2.23;100.00;98475.89;99337;1367;22971;-31
2022/12/22 14:52:55;;;;;;;21.20;10.80;;;;;;;2.18;100.00;98478.65;99361;1367;22754;-30
2022/12/22 14:55:30;;;;;;;13.60;8.50;;;;;;;2.20;100.00;98476.60;99367;1351;25333;-30
2022/12/22 14:58:15;;;;;;;26.90;12.30;;;;;;;2.25;100.00;98476.57;99357;1358;22606;-34
2022/12/22 15:00:45;;;;;;;24.30;12.20;;;;;;;2.20;100.00;98469.38;99324;1352;22708;-34
2022/12/22 15:03:28;;;;;;;24.10;11.50;;;;;;;2.21;100.00;98469.38;99320;1368;23092;-28
2022/12/22 15:05:54;;;;;;;20.40;10.00;;;;;;;2.27;100.00;98470.34;99343;1369;23186;-32
2022/12/22 15:08:40;;;;;;;16.10;8.70;;;;;;;2.26;100.00;98471.04;99313;1366;23088;-31
2022/12/22 15:11:12;;;;;;;32.00;13.20;;;;;;;2.20;100.00;98463.15;99343;1369;22805;-35
2022/12/22 15:13:37;;;;;;;23.70;11.50;;;;;;;2.21;100.00;98460.38;99052;1357;22848;-31
2022/12/22 15:16:03;;;;;;;20.10;10.20;;;;;;;2.28;100.00;98462.48;99332;1357;22810;-33
2022/12/22 15:18:29;;;;;;;18.60;11.70;;;;;;;2.29;100.00;98459.17;99357;1351;23086;-30
2022/12/22 15:20:55;;;;;;;22.40;11.20;;;;;;;2.30;100.00;98451.36;99053;1357;23209;-34
2022/12/22 15:23:21;;;;;;;25.10;12.40;;;;;;;2.30;100.00;98454.48;99346;1352;22941;-34
2022/12/22 15:25:46;;;;;;;19.90;10.80;;;;;;;2.33;100.00;98449.94;99292;1360;22995;-34
2022/12/22 15:28:12;;;;;;;21.80;11.70;;;;;;;2.37;100.00;98446.67;99427;1353;22735;-33
2022/12/22 15:30:38;;;;;;;16.70;9.40;;;;;;;2.35;100.00;98439.86;99345;1344;22837;-30
2022/12/22 15:33:12;;;;;;;20.30;11.50;;;;;;;2.33;100.00;98440.89;99067;1356;23156;-29
2022/12/22 15:35:38;;;;;;;26.30;11.70;;;;;;;2.33;100.00;98442.68;99363;1354;22842;-30
2022/12/22 15:38:08;;;;;;;28.30;11.50;;;;;;;2.39;100.00;98446.27;99360;1370;24279;-34
2022/12/22 15:40:34;;;;;;;12.90;7.70;;;;;;;2.35;100.00;98449.20;98934;1363;22596;-30
2022/12/22 15:43:00;;;;;;;29.30;11.70;;;;;;;2.41;100.00;98445.42;99299;1360;24975;-30
2022/12/22 15:45:25;;;;;;;25.70;13.60;;;;;;;2.41;100.00;98444.33;99105;1353;22599;-36
2022/12/22 15:47:52;;;;;;;27.30;12.50;;;;;;;2.36;100.00;98439.36;99068;1362;23085;-29
2022/12/22 15:50:19;;;;;;;29.80;12.70;;;;;;;2.38;100.00;98443.54;98923;1364;22852;-30
2022/12/22 15:52:49;;;;;;;30.30;12.60;;;;;;;2.33;100.00;98441.78;99390;1366;23076;-33
2022/12/22 15:55:15;;;;;;;34.20;13.60;;;;;;;2.37;100.00;98449.15;99334;1367;23122;-29
2022/12/22 15:57:41;;;;;;;22.00;11.60;;;;;;;2.35;100.00;98444.04;99372;1352;22721;-33
2022/12/22 16:00:10;;;;;;;21.50;11.20;;;;;;;2.34;100.00;98444.53;99343;1351;22843;-33
2022/12/22 16:02:36;;;;;;;23.30;12.50;;;;;;;2.39;100.00;98451.04;99358;1366;22595;-33
2022/12/22 16:05:02;;;;;;;36.40;18.30;;;;;;;2.39;100.00;98451.58;99041;1353;23082;-33
2022/12/22 16:07:29;;;;;;;30.40;14.20;;;;;;;2.32;100.00;98450.56;99175;1366;22721;-29
2022/12/22 16:48:59;;;;;;;23.90;13.20;;;;;;;2.68;100.00;98436.40;99175;1370;558328;-30
2022/12/22 16:51:32;;;;;;;24.90;10.60;;;;;;;2.84;100.00;98421.52;98890;1353;347542;-30
2022/12/22 16:53:59;;;;;;;24.70;13.50;;;;;;;2.82;100.00;98415.75;99057;1372;22973;-33
2022/12/22 16:56:26;;;;;;;23.70;12.10;;;;;;;2.80;100.00;98415.89;98937;1369;22834;-30
2022/12/22 16:58:52;;;;;;;35.00;19.60;;;;;;;2.83;100.00;98417.54;99127;1358;22867;-33
2022/12/22 17:01:21;;;;;;;20.50;10.80;;;;;;;2.86;100.00;98410.37;99015;1353;22843;-29
2022/12/22 17:03:46;;;;;;;27.50;12.40;;;;;;;2.95;100.00;98402.45;99144;1354;25418;-33